createdAt,value
2022-08-16T00:02:32.305Z,99.90
2022-08-16T00:05:01.099Z,99.90
2022-08-16T00:07:29.832Z,99.90
2022-08-16T00:10:00.187Z,99.90
2022-08-16T00:12:30.199Z,99.90
2022-08-16T00:14:59.868Z,99.90
2022-08-16T00:17:28.593Z,99.90
2022-08-16T00:20:16.717Z,99.90
2022-08-16T00:22:49.486Z,99.90
2022-08-16T00:26:13.594Z,99.90
2022-08-16T00:28:12.413Z,99.90
2022-08-16T00:30:41.033Z,99.90
2022-08-16T00:33:10.107Z,99.90
2022-08-16T00:35:39.404Z,99.90
2022-08-16T00:38:40.231Z,99.90
2022-08-16T00:41:00.617Z,99.90
2022-08-16T00:43:42.738Z,99.90
2022-08-16T00:46:33.300Z,99.90
2022-08-16T00:49:03.413Z,99.90
2022-08-16T00:51:31.801Z,99.90
2022-08-16T00:54:00.081Z,99.90
2022-08-16T00:56:56.861Z,99.90
2022-08-16T00:59:23.744Z,99.90
2022-08-16T01:01:52.423Z,99.90
2022-08-16T01:04:29.535Z,99.90
2022-08-16T01:07:02.152Z,99.90
2022-08-16T01:09:33.679Z,99.90
2022-08-16T01:12:08.772Z,99.90
2022-08-16T01:14:43.811Z,99.90
2022-08-16T01:17:13.777Z,99.90
2022-08-16T01:19:45.416Z,99.90
2022-08-16T01:22:49.632Z,99.90
2022-08-16T01:25:14.209Z,99.90
2022-08-16T01:27:46.943Z,99.90
2022-08-16T01:30:20.659Z,99.90
2022-08-16T01:33:01.601Z,99.90
2022-08-16T01:35:36.290Z,99.90
2022-08-16T01:38:19.735Z,99.90
2022-08-16T01:40:50.712Z,99.90
2022-08-16T01:43:18.947Z,99.90
2022-08-16T01:45:47.704Z,99.90
2022-08-16T01:48:29.409Z,99.90
2022-08-16T01:51:09.450Z,99.90
2022-08-16T01:53:55.395Z,99.90
2022-08-16T01:56:27.780Z,99.90
2022-08-16T01:58:58.469Z,99.90
2022-08-16T02:01:28.134Z,99.90
2022-08-16T02:03:58.422Z,99.90
2022-08-16T02:06:38.708Z,99.90
2022-08-16T02:09:12.017Z,99.90
2022-08-16T02:11:48.871Z,99.90
2022-08-16T02:14:26.486Z,99.90
2022-08-16T02:16:56.191Z,99.90
2022-08-16T02:19:25.351Z,99.90
2022-08-16T02:22:34.217Z,99.90
2022-08-16T02:25:08.247Z,99.90
2022-08-16T02:27:41.057Z,99.90
2022-08-16T02:30:37.533Z,99.90
2022-08-16T02:33:03.438Z,99.90
2022-08-16T02:35:32.718Z,99.90
2022-08-16T02:38:01.821Z,99.90
2022-08-16T02:40:37.424Z,99.90
2022-08-16T02:43:07.437Z,99.90
2022-08-16T02:45:36.204Z,99.90
2022-08-16T02:48:29.090Z,99.90
2022-08-16T02:51:04.074Z,99.90
2022-08-16T02:53:41.014Z,99.90
2022-08-16T02:56:14.802Z,99.90
2022-08-16T02:58:45.664Z,99.90
2022-08-16T03:01:25.069Z,99.90
2022-08-16T03:04:39.223Z,99.90
2022-08-16T03:06:56.430Z,99.90
2022-08-16T03:09:28.827Z,99.90
2022-08-16T03:11:58.208Z,99.90
2022-08-16T03:14:30.428Z,99.90
2022-08-16T03:17:00.734Z,99.90
2022-08-16T03:19:46.861Z,99.90
2022-08-16T03:22:19.540Z,99.90
2022-08-16T03:24:58.421Z,99.90
2022-08-16T03:27:30.877Z,99.90
2022-08-16T03:30:02.575Z,99.90
2022-08-16T03:32:47.282Z,99.90
2022-08-16T03:35:17.519Z,99.90
2022-08-16T03:38:01.857Z,99.90
2022-08-16T03:40:33.791Z,99.90
2022-08-16T03:43:20.345Z,99.90
2022-08-16T03:45:53.433Z,99.90
2022-08-16T03:48:37.211Z,99.90
2022-08-16T03:51:12.465Z,99.90
2022-08-16T03:53:41.990Z,99.90
2022-08-16T03:56:20.893Z,99.90
2022-08-16T03:58:50.940Z,99.90
2022-08-16T04:01:22.593Z,99.90
2022-08-16T04:03:51.296Z,99.90
2022-08-16T04:06:21.860Z,99.90
2022-08-16T04:08:49.921Z,99.90
2022-08-16T04:11:19.113Z,99.90
2022-08-16T04:14:00.681Z,99.90
2022-08-16T04:16:37.396Z,99.90
2022-08-16T04:19:05.598Z,99.90
2022-08-16T04:21:34.851Z,99.90
2022-08-16T04:24:03.978Z,99.90
2022-08-16T04:26:36.681Z,99.90
2022-08-16T04:29:14.970Z,99.90
2022-08-16T04:31:56.576Z,99.90
2022-08-16T04:34:27.823Z,99.90
2022-08-16T04:36:56.556Z,99.90
2022-08-16T04:39:46.198Z,99.90
2022-08-16T04:42:13.496Z,99.90
2022-08-16T04:44:54.221Z,99.90
2022-08-16T04:47:33.007Z,99.90
2022-08-16T04:50:01.798Z,99.90
2022-08-16T04:52:34.009Z,99.90
2022-08-16T04:55:06.213Z,99.90
2022-08-16T04:57:34.557Z,99.90
2022-08-16T05:00:30.210Z,99.90
2022-08-16T05:02:58.691Z,99.90
2022-08-16T05:05:32.726Z,99.90
2022-08-16T05:08:01.469Z,99.90
2022-08-16T05:10:49.629Z,99.90
2022-08-16T05:13:19.110Z,99.90
2022-08-16T05:15:49.742Z,99.90
2022-08-16T05:18:26.857Z,99.90
2022-08-16T05:21:09.366Z,99.90
2022-08-16T05:23:37.994Z,99.90
2022-08-16T05:26:06.226Z,99.90
2022-08-16T05:28:47.845Z,99.90
2022-08-16T05:31:24.066Z,99.90
2022-08-16T05:34:00.223Z,99.90
2022-08-16T05:36:33.757Z,99.90
2022-08-16T05:39:05.063Z,99.90
2022-08-16T05:41:44.834Z,99.90
2022-08-16T05:44:24.001Z,99.90
2022-08-16T05:46:54.995Z,99.90
2022-08-16T05:49:38.657Z,99.90
2022-08-16T05:52:11.784Z,99.90
2022-08-16T05:54:46.589Z,99.90
2022-08-16T05:57:16.289Z,99.90
2022-08-16T05:59:45.528Z,99.90
2022-08-16T06:02:14.843Z,99.90
2022-08-16T06:04:45.162Z,99.90
2022-08-16T06:07:24.700Z,99.90
2022-08-16T06:09:56.244Z,99.90
2022-08-16T06:12:27.243Z,99.90
2022-08-16T06:14:59.194Z,99.90
2022-08-16T06:17:42.329Z,99.90
2022-08-16T06:20:24.105Z,99.90
2022-08-16T06:22:57.621Z,99.90
2022-08-16T06:25:36.353Z,99.90
2022-08-16T06:28:09.428Z,99.90
2022-08-16T06:30:43.283Z,99.90
2022-08-16T06:33:12.841Z,99.90
2022-08-16T06:35:49.363Z,99.90
2022-08-16T06:38:22.196Z,99.90
2022-08-16T06:41:03.906Z,99.90
2022-08-16T06:43:32.959Z,99.90
2022-08-16T06:46:03.754Z,99.90
2022-08-16T06:48:33.713Z,99.90
2022-08-16T06:51:04.656Z,99.90
2022-08-16T06:53:36.436Z,99.90
2022-08-16T06:56:14.769Z,99.90
2022-08-16T06:58:53.217Z,99.90
2022-08-16T07:01:43.105Z,99.90
2022-08-16T07:04:11.748Z,99.90
2022-08-16T07:06:43.299Z,99.90
2022-08-16T07:09:12.469Z,99.90
2022-08-16T07:11:47.741Z,99.90
2022-08-16T07:14:26.285Z,99.90
2022-08-16T07:16:57.808Z,99.90
2022-08-16T07:19:33.553Z,99.90
2022-08-16T07:22:38.933Z,99.90
2022-08-16T07:25:05.820Z,99.90
2022-08-16T07:27:34.012Z,99.90
2022-08-16T07:30:39.193Z,99.90
2022-08-16T07:32:56.548Z,99.90
2022-08-16T07:35:25.124Z,99.90
2022-08-16T07:37:54.580Z,99.90
2022-08-16T07:40:48.979Z,99.90
2022-08-16T07:43:12.009Z,99.90
2022-08-16T07:45:43.059Z,99.90
2022-08-16T07:48:12.654Z,99.90
2022-08-16T07:50:56.185Z,99.90
2022-08-16T07:53:30.222Z,99.90
2022-08-16T07:56:00.365Z,99.90
2022-08-16T07:58:34.801Z,99.90
2022-08-16T08:01:10.729Z,99.90
2022-08-16T08:03:47.599Z,99.90
2022-08-16T08:06:17.002Z,99.90
2022-08-16T08:08:50.934Z,99.90
2022-08-16T08:11:23.661Z,99.90
2022-08-16T08:13:56.722Z,99.90
2022-08-16T08:16:30.585Z,99.90
2022-08-16T08:19:02.342Z,99.90
2022-08-16T08:21:58.239Z,99.90
2022-08-16T08:24:31.608Z,99.90
2022-08-16T08:27:02.314Z,99.90
2022-08-16T08:29:37.185Z,99.90
2022-08-16T08:32:57.509Z,99.90
2022-08-16T08:35:00.234Z,99.90
2022-08-16T08:37:51.144Z,99.90
2022-08-16T08:40:24.792Z,99.90
2022-08-16T08:43:00.282Z,99.90
2022-08-16T08:45:48.032Z,99.90
2022-08-16T08:48:33.259Z,99.90
2022-08-16T08:51:04.582Z,99.90
2022-08-16T08:53:33.671Z,99.90
2022-08-16T08:56:23.432Z,99.90
2022-08-16T08:58:54.909Z,99.90
2022-08-16T09:01:36.863Z,99.90
2022-08-16T09:04:14.808Z,99.90
2022-08-16T09:06:45.986Z,99.90
2022-08-16T09:09:17.212Z,99.90
2022-08-16T09:11:53.325Z,99.90
2022-08-16T09:14:34.140Z,99.90
2022-08-16T09:17:14.175Z,99.90
2022-08-16T09:19:55.253Z,99.90
2022-08-16T09:22:27.895Z,99.90
2022-08-16T09:24:58.153Z,99.90
2022-08-16T09:27:56.442Z,99.90
2022-08-16T09:30:33.302Z,99.90
2022-08-16T09:33:02.988Z,99.90
2022-08-16T09:35:37.226Z,99.90
2022-08-16T09:38:08.340Z,99.90
2022-08-16T09:40:42.300Z,99.90
2022-08-16T09:43:44.756Z,99.90
2022-08-16T09:46:45.544Z,99.90
2022-08-16T09:48:56.641Z,99.90
2022-08-16T09:51:26.376Z,99.90
2022-08-16T09:54:05.615Z,99.90
2022-08-16T09:56:36.386Z,99.90
2022-08-16T09:59:10.387Z,99.90
2022-08-16T10:01:43.561Z,99.90
2022-08-16T10:04:31.179Z,99.90
2022-08-16T10:09:45.219Z,99.90
2022-08-16T10:12:42.270Z,99.90
2022-08-16T10:15:15.351Z,99.90
2022-08-16T10:17:45.644Z,99.90
2022-08-16T10:20:29.267Z,99.90
2022-08-16T10:23:05.473Z,99.90
2022-08-16T10:27:18.630Z,99.90
2022-08-16T10:28:28.680Z,99.90
2022-08-16T10:30:59.613Z,99.90
2022-08-16T10:33:29.796Z,99.90
2022-08-16T10:36:03.857Z,99.90
2022-08-16T10:38:36.766Z,99.90
2022-08-16T10:41:07.021Z,99.90
2022-08-16T10:43:35.958Z,99.90
2022-08-16T10:46:33.736Z,99.90
2022-08-16T10:48:54.539Z,99.90
2022-08-16T10:51:33.526Z,99.90
2022-08-16T10:54:04.837Z,99.90
2022-08-16T10:56:52.092Z,99.90
2022-08-16T10:59:44.578Z,99.90
2022-08-16T11:02:59.933Z,99.90
2022-08-16T11:05:08.868Z,99.90
2022-08-16T11:07:52.421Z,99.90
2022-08-16T11:13:57.463Z,99.90
2022-08-16T11:19:04.430Z,99.90
2022-08-16T11:21:37.494Z,99.90
2022-08-16T11:24:40.202Z,99.90
2022-08-16T11:27:23.197Z,99.90
2022-08-16T11:29:55.096Z,99.90
2022-08-16T11:32:31.416Z,99.90
2022-08-16T11:35:14.122Z,99.90
2022-08-16T11:40:37.833Z,99.90
2022-08-16T11:43:07.669Z,99.90
2022-08-16T11:45:38.627Z,99.90
2022-08-16T11:48:07.704Z,99.90
2022-08-16T11:50:37.349Z,99.90
2022-08-16T11:53:08.196Z,99.90
2022-08-16T11:55:38.395Z,99.90
2022-08-16T11:58:08.558Z,99.90
2022-08-16T12:00:51.482Z,99.90
2022-08-16T12:03:24.989Z,99.90
2022-08-16T12:06:03.947Z,99.90
2022-08-16T12:08:33.134Z,99.90
2022-08-16T12:11:02.520Z,99.90
2022-08-16T12:13:30.910Z,99.90
2022-08-16T12:15:59.085Z,99.90
2022-08-16T12:18:27.198Z,99.90
2022-08-16T12:20:55.466Z,99.90
2022-08-16T12:23:27.833Z,99.90
2022-08-16T12:25:59.674Z,99.90
2022-08-16T12:28:53.986Z,99.90
2022-08-16T12:31:15.826Z,99.90
2022-08-16T12:33:45.139Z,99.90
2022-08-16T12:36:14.075Z,99.90
2022-08-16T12:38:48.304Z,99.90
2022-08-16T12:41:25.273Z,99.90
2022-08-16T12:43:57.122Z,99.90
2022-08-16T12:46:30.919Z,99.90
2022-08-16T12:48:59.309Z,99.90
2022-08-16T12:51:33.144Z,99.90
2022-08-16T12:54:21.858Z,99.90
2022-08-16T12:56:50.532Z,99.40
2022-08-16T12:59:20.845Z,99.10
2022-08-16T13:01:55.300Z,98.90
2022-08-16T13:04:27.989Z,98.20
2022-08-16T13:09:42.844Z,97.90
2022-08-16T13:12:20.008Z,97.80
2022-08-16T13:14:50.165Z,98.30
2022-08-16T13:17:20.974Z,97.80
2022-08-16T13:20:07.011Z,97.50
2022-08-16T13:22:37.528Z,97.70
2022-08-16T13:25:09.682Z,97.50
2022-08-16T13:28:01.556Z,98.40
2022-08-16T13:30:37.365Z,99.00
2022-08-16T13:33:13.390Z,99.30
2022-08-16T13:35:46.077Z,99.60
2022-08-16T13:38:25.780Z,99.10
2022-08-16T13:40:57.309Z,98.60
2022-08-16T13:43:27.209Z,99.10
2022-08-16T13:45:56.268Z,98.50
2022-08-16T13:48:25.970Z,98.60
2022-08-16T13:50:55.121Z,98.70
2022-08-16T13:53:25.013Z,98.50
2022-08-16T13:55:57.895Z,98.60
2022-08-16T13:58:34.943Z,98.50
2022-08-16T14:01:09.492Z,97.50
2022-08-16T14:03:38.801Z,97.90
2022-08-16T14:06:08.177Z,97.70
2022-08-16T14:08:42.165Z,96.40
2022-08-16T14:11:12.935Z,95.50
2022-08-16T14:13:44.245Z,95.90
2022-08-16T14:16:23.827Z,96.00
2022-08-16T14:18:58.449Z,96.50
2022-08-16T14:21:26.479Z,97.00
2022-08-16T14:24:16.760Z,95.60
2022-08-16T14:26:52.968Z,94.80
2022-08-16T14:29:22.102Z,95.40
2022-08-16T14:31:53.589Z,95.10
2022-08-16T14:34:25.715Z,95.60
2022-08-16T14:36:54.261Z,95.50
2022-08-16T14:39:23.314Z,95.60
2022-08-16T14:41:53.749Z,95.40
2022-08-16T14:44:24.251Z,95.00
2022-08-16T14:46:54.710Z,94.70
2022-08-16T14:49:24.017Z,93.90
2022-08-16T14:51:52.357Z,94.00
2022-08-16T14:54:21.740Z,93.30
2022-08-16T14:56:54.904Z,92.20
2022-08-16T14:59:24.992Z,92.00
2022-08-16T15:01:58.604Z,92.30
2022-08-16T15:04:37.893Z,91.70
2022-08-16T15:07:12.494Z,91.10
2022-08-16T15:09:44.151Z,92.20
2022-08-16T15:12:30.957Z,92.70
2022-08-16T15:15:11.952Z,92.10
2022-08-16T15:17:42.187Z,92.40
2022-08-16T15:20:23.653Z,91.10
2022-08-16T15:22:55.156Z,90.80
2022-08-16T15:25:29.274Z,90.30
2022-08-16T15:27:58.570Z,90.10
2022-08-16T15:30:57.176Z,89.80
2022-08-16T15:33:19.697Z,90.50
2022-08-16T15:35:50.716Z,91.50
2022-08-16T15:38:54.668Z,91.30
2022-08-16T15:41:07.890Z,91.20
2022-08-16T15:43:39.750Z,91.40
2022-08-16T15:46:35.013Z,91.50
2022-08-16T15:49:15.362Z,90.90
2022-08-16T15:51:44.842Z,91.00
2022-08-16T15:54:21.107Z,91.30
2022-08-16T15:57:04.296Z,91.00
2022-08-16T15:59:48.885Z,91.60
2022-08-16T16:02:29.172Z,92.80
2022-08-16T16:05:01.802Z,93.50
2022-08-16T16:07:33.725Z,93.10
2022-08-16T16:10:05.291Z,93.00
2022-08-16T16:12:54.471Z,93.00
2022-08-16T16:15:25.990Z,92.60
2022-08-16T16:17:59.356Z,92.20
2022-08-16T16:20:35.799Z,92.90
2022-08-16T16:23:10.539Z,93.20
2022-08-16T16:25:43.560Z,93.40
2022-08-16T16:29:05.073Z,93.20
2022-08-16T16:31:01.766Z,93.40
2022-08-16T16:33:34.017Z,93.50
2022-08-16T16:36:05.702Z,93.70
2022-08-16T16:38:35.559Z,93.80
2022-08-16T16:41:09.294Z,94.00
2022-08-16T16:43:40.768Z,93.70
2022-08-16T16:46:41.354Z,93.90
2022-08-16T16:49:00.470Z,94.20
2022-08-16T16:51:32.457Z,94.70
2022-08-16T16:54:12.719Z,94.30
2022-08-16T16:56:49.557Z,94.30
2022-08-16T16:59:20.252Z,94.60
2022-08-16T17:01:57.546Z,95.00
2022-08-16T17:04:40.726Z,94.90
2022-08-16T17:07:11.172Z,94.70
2022-08-16T17:09:42.454Z,94.70
2022-08-16T17:12:24.407Z,94.60
2022-08-16T17:14:55.227Z,94.70
2022-08-16T17:17:24.864Z,94.90
2022-08-16T17:20:06.463Z,95.10
2022-08-16T17:22:41.843Z,95.10
2022-08-16T17:25:13.330Z,95.10
2022-08-16T17:27:41.764Z,95.20
2022-08-16T17:30:29.475Z,95.10
2022-08-16T17:33:13.130Z,95.60
2022-08-16T17:35:55.231Z,95.70
2022-08-16T17:38:38.590Z,95.50
2022-08-16T17:41:09.588Z,95.60
2022-08-16T17:43:44.358Z,95.60
2022-08-16T17:46:41.572Z,95.60
2022-08-16T17:49:02.168Z,95.50
2022-08-16T17:51:34.235Z,95.60
2022-08-16T17:54:03.487Z,95.70
2022-08-16T17:56:32.535Z,95.80
2022-08-16T17:59:01.183Z,96.10
2022-08-16T18:01:30.393Z,96.60
2022-08-16T18:04:02.993Z,96.60
2022-08-16T18:06:39.898Z,96.90
2022-08-16T18:09:09.000Z,97.10
2022-08-16T18:11:41.224Z,97.30
2022-08-16T18:14:12.740Z,97.50
2022-08-16T18:16:41.395Z,97.60
2022-08-16T18:19:09.702Z,97.80
2022-08-16T18:21:56.691Z,97.90
2022-08-16T18:24:25.526Z,98.00
2022-08-16T18:26:53.911Z,98.20
2022-08-16T18:29:22.451Z,98.50
2022-08-16T18:31:51.012Z,98.70
2022-08-16T18:34:20.704Z,99.00
2022-08-16T18:36:50.975Z,99.20
2022-08-16T18:39:19.105Z,99.60
2022-08-16T18:41:47.950Z,99.90
2022-08-16T18:44:26.577Z,99.90
2022-08-16T18:46:56.812Z,99.90
2022-08-16T18:49:25.267Z,99.90
2022-08-16T18:51:58.843Z,99.90
2022-08-16T18:54:28.252Z,99.90
2022-08-16T18:56:58.257Z,99.90
2022-08-16T18:59:28.959Z,99.90
2022-08-16T19:02:04.201Z,99.90
2022-08-16T19:04:50.339Z,99.90
2022-08-16T19:07:30.971Z,99.90
2022-08-16T19:10:00.891Z,99.90
2022-08-16T19:12:38.173Z,99.90
2022-08-16T19:15:13.372Z,99.90
2022-08-16T19:17:42.554Z,99.90
2022-08-16T19:20:11.953Z,99.90
2022-08-16T19:25:46.734Z,99.90
2022-08-16T19:28:48.847Z,99.90
2022-08-16T19:31:10.935Z,99.90
2022-08-16T19:33:47.188Z,99.90
2022-08-16T19:36:31.591Z,99.90
2022-08-16T19:39:06.756Z,99.90
2022-08-16T19:41:38.305Z,99.90
2022-08-16T19:44:07.502Z,99.90
2022-08-16T19:46:37.782Z,99.90
2022-08-16T19:49:06.764Z,99.90
2022-08-16T19:51:34.859Z,99.90
2022-08-16T19:54:04.526Z,99.90
2022-08-16T19:56:32.588Z,99.90
2022-08-16T19:59:18.590Z,99.90
2022-08-16T20:01:49.355Z,99.90
2022-08-16T20:04:17.872Z,99.90
2022-08-16T20:06:47.033Z,99.90
2022-08-16T20:09:16.902Z,99.90
2022-08-16T20:11:46.101Z,99.90
2022-08-16T20:14:24.899Z,99.90
2022-08-16T20:16:55.900Z,99.90
2022-08-16T20:19:25.167Z,99.90
2022-08-16T20:21:53.579Z,99.90
2022-08-16T20:24:33.997Z,99.90
2022-08-16T20:27:03.748Z,99.90
2022-08-16T20:29:32.463Z,99.90
2022-08-16T20:32:00.781Z,99.90
2022-08-16T20:34:29.016Z,99.90
2022-08-16T20:36:57.189Z,99.90
2022-08-16T20:39:27.055Z,99.90
2022-08-16T20:41:55.354Z,99.90
2022-08-16T20:44:25.196Z,99.90
2022-08-16T20:46:54.074Z,99.90
2022-08-16T20:49:22.380Z,99.90
2022-08-16T20:51:55.890Z,99.90
2022-08-16T20:54:29.441Z,99.90
2022-08-16T20:56:57.853Z,99.90
2022-08-16T20:59:26.289Z,99.90
2022-08-16T21:01:55.160Z,99.90
2022-08-16T21:04:27.158Z,99.90
2022-08-16T21:06:59.271Z,99.90
2022-08-16T21:09:33.539Z,99.90
2022-08-16T21:12:03.519Z,99.90
2022-08-16T21:14:34.486Z,99.90
2022-08-16T21:17:02.999Z,99.90
2022-08-16T21:19:31.254Z,99.90
2022-08-16T21:22:00.171Z,99.90
2022-08-16T21:24:30.337Z,99.90
2022-08-16T21:27:00.929Z,99.90
2022-08-16T21:29:42.801Z,99.90
2022-08-16T21:32:13.962Z,99.90
2022-08-16T21:34:43.310Z,99.90
2022-08-16T21:37:12.343Z,99.90
2022-08-16T21:39:46.879Z,99.90
2022-08-16T21:42:17.992Z,99.90
2022-08-16T21:44:47.133Z,99.90
2022-08-16T21:47:16.194Z,99.90
2022-08-16T21:49:44.601Z,99.90
2022-08-16T21:52:26.246Z,99.90
2022-08-16T21:54:58.210Z,99.90
2022-08-16T21:57:26.943Z,99.90
2022-08-16T22:00:10.359Z,99.90
2022-08-16T22:02:38.823Z,99.90
2022-08-16T22:05:07.834Z,99.90
2022-08-16T22:07:35.887Z,99.90
2022-08-16T22:11:05.489Z,99.90
2022-08-16T22:12:59.053Z,99.90
2022-08-16T22:15:27.792Z,99.90
2022-08-16T22:17:58.325Z,99.90
2022-08-16T22:20:28.386Z,99.90
2022-08-16T22:23:06.938Z,99.90
2022-08-16T22:25:36.551Z,99.90
2022-08-16T22:28:06.055Z,99.90
2022-08-16T22:30:34.252Z,99.90
2022-08-16T22:33:07.998Z,99.90
2022-08-16T22:35:42.473Z,99.90
2022-08-16T22:38:55.243Z,99.90
2022-08-16T22:41:00.946Z,99.90
2022-08-16T22:43:30.098Z,99.90
2022-08-16T22:45:58.492Z,99.90
2022-08-16T22:48:26.580Z,99.90
2022-08-16T22:51:03.425Z,99.90
2022-08-16T22:54:00.350Z,99.90
2022-08-16T22:57:01.982Z,99.90
2022-08-16T22:59:34.903Z,99.90
2022-08-16T23:02:10.257Z,99.90
2022-08-16T23:04:39.650Z,99.90
2022-08-16T23:07:07.766Z,99.90
2022-08-16T23:09:36.717Z,99.90
2022-08-16T23:12:07.332Z,99.90
2022-08-16T23:14:35.480Z,99.90
2022-08-16T23:17:03.904Z,99.90
2022-08-16T23:19:32.072Z,99.90
2022-08-16T23:22:00.743Z,99.90
2022-08-16T23:24:28.943Z,99.90
2022-08-16T23:26:57.604Z,99.90
2022-08-16T23:29:27.517Z,99.90
2022-08-16T23:31:58.278Z,99.90
2022-08-16T23:34:28.329Z,99.90
2022-08-16T23:36:56.707Z,99.90
2022-08-16T23:39:25.571Z,99.90
2022-08-16T23:41:53.710Z,99.90
2022-08-16T23:44:54.925Z,99.90
2022-08-16T23:47:11.721Z,99.90
2022-08-16T23:50:01.898Z,99.90
2022-08-16T23:52:48.856Z,99.90
2022-08-16T23:55:17.329Z,99.90
